Time;durP1;ratioP1;P1;durP2;ratioP2;P2;SDS_P1;SDS_P2;PMS_P1;PMS_P2;Temp;Humidity;BMP_temperature;BMP_pressure;BME280_temperature;BME280_humidity;BME280_pressure;Samples;Min_cycle;Max_cycle;Signal;HPM_P1;HPM_P2
2021/06/11 00:02:50;;;;;;;5.30;4.22;;;;;;;;;;10282011;28;20290;-63
2021/06/11 00:07:47;;;;;;;6.28;4.20;;;;;;;;;;10281547;28;20099;-64
2021/06/11 00:12:45;;;;;;;6.90;4.15;;;;;;;;;;10281553;28;20076;-64
2021/06/11 00:17:45;;;;;;;5.20;4.03;;;;;;;;;;10281848;28;20058;-63
2021/06/11 00:22:42;;;;;;;4.40;3.65;;;;;;;;;;10280943;28;20053;-64
2021/06/11 00:27:41;;;;;;;11.27;4.93;;;;;;;;;;10279054;28;20083;-64
2021/06/11 00:32:39;;;;;;;5.03;4.03;;;;;;;;;;10280591;28;20508;-63
2021/06/11 00:37:39;;;;;;;8.52;4.85;;;;;;;;;;10280402;28;20472;-64
2021/06/11 00:42:36;;;;;;;5.90;4.65;;;;;;;;;;10280545;28;20524;-63
2021/06/11 00:47:34;;;;;;;10.00;7.25;;;;;;;;;;10279956;28;20036;-63
2021/06/11 00:52:32;;;;;;;8.73;7.82;;;;;;;;;;10278746;28;20409;-64
2021/06/11 00:57:32;;;;;;;11.43;9.55;;;;;;;;;;10279844;28;20040;-64
2021/06/11 01:02:29;;;;;;;11.50;9.30;;;;;;;;;;10279537;28;20497;-64
2021/06/11 01:07:28;;;;;;;10.95;9.90;;;;;;;;;;10279088;28;20457;-64
2021/06/11 01:12:26;;;;;;;15.70;10.65;;;;;;;;;;10279029;28;20383;-63
2021/06/11 01:17:25;;;;;;;11.43;9.05;;;;;;;;;;10278438;28;20057;-64
2021/06/11 01:22:31;;;;;;;11.38;8.98;;;;;;;;;;10278663;28;20414;-64
2021/06/11 01:27:30;;;;;;;13.55;8.65;;;;;;;;;;10278723;28;20048;-64
2021/06/11 01:32:28;;;;;;;9.40;8.52;;;;;;;;;;10278032;28;20111;-64
2021/06/11 01:37:32;;;;;;;14.40;9.15;;;;;;;;;;10278007;28;20535;-63
2021/06/11 01:42:33;;;;;;;12.40;8.23;;;;;;;;;;10278215;28;20068;-64
2021/06/11 01:47:31;;;;;;;12.77;8.73;;;;;;;;;;10277983;28;20489;-64
2021/06/11 01:52:30;;;;;;;14.30;7.22;;;;;;;;;;10277425;28;20102;-64
2021/06/11 01:57:28;;;;;;;9.68;6.90;;;;;;;;;;10277062;28;20073;-65
2021/06/11 02:02:27;;;;;;;10.40;7.18;;;;;;;;;;10276604;28;20073;-64
2021/06/11 02:07:25;;;;;;;11.43;7.88;;;;;;;;;;10276412;28;20073;-64
2021/06/11 02:12:23;;;;;;;11.90;7.28;;;;;;;;;;10277439;28;20075;-64
2021/06/11 02:17:23;;;;;;;10.10;8.40;;;;;;;;;;10276988;28;20085;-64
2021/06/11 02:22:23;;;;;;;10.25;9.07;;;;;;;;;;10276431;28;20409;-63
2021/06/11 02:27:20;;;;;;;11.13;8.45;;;;;;;;;;10276951;28;20100;-64
2021/06/11 02:32:20;;;;;;;10.85;8.60;;;;;;;;;;10276409;28;20048;-64
2021/06/11 02:37:18;;;;;;;11.35;9.88;;;;;;;;;;10288846;28;20072;-63
2021/06/11 02:42:18;;;;;;;11.05;9.95;;;;;;;;;;10313293;28;20607;-64
2021/06/11 02:47:17;;;;;;;10.15;9.23;;;;;;;;;;10314522;28;20498;-64
2021/06/11 02:52:15;;;;;;;10.90;8.38;;;;;;;;;;10313266;28;20047;-64
2021/06/11 02:57:18;;;;;;;9.60;8.07;;;;;;;;;;10313377;28;20047;-64
2021/06/11 03:02:21;;;;;;;9.13;8.27;;;;;;;;;;10306251;28;20076;-64
2021/06/11 03:07:22;;;;;;;10.18;8.73;;;;;;;;;;10292459;28;20088;-64
2021/06/11 03:12:20;;;;;;;12.50;7.57;;;;;;;;;;10299563;28;20052;-64
2021/06/11 03:17:20;;;;;;;11.52;7.55;;;;;;;;;;10287708;28;20084;-64
2021/06/11 03:22:19;;;;;;;8.80;7.80;;;;;;;;;;10295754;28;20501;-64
2021/06/11 03:27:19;;;;;;;13.65;7.63;;;;;;;;;;10287340;28;20076;-64
2021/06/11 03:32:20;;;;;;;14.10;7.30;;;;;;;;;;10293326;28;20068;-63
2021/06/11 03:37:19;;;;;;;10.98;7.75;;;;;;;;;;10299995;28;20068;-63
2021/06/11 03:42:18;;;;;;;8.75;7.57;;;;;;;;;;10283677;28;20069;-61
2021/06/11 03:47:17;;;;;;;9.25;8.23;;;;;;;;;;10270473;28;20417;-61
2021/06/11 03:52:15;;;;;;;9.93;7.72;;;;;;;;;;10273044;28;20056;-61
2021/06/11 03:57:15;;;;;;;9.18;6.47;;;;;;;;;;10272394;28;20079;-61
2021/06/11 04:02:15;;;;;;;9.13;7.07;;;;;;;;;;10277614;28;20523;-62
2021/06/11 04:07:17;;;;;;;11.80;6.90;;;;;;;;;;10278501;28;20048;-62
2021/06/11 04:12:21;;;;;;;13.15;7.20;;;;;;;;;;10279635;28;20072;-62
2021/06/11 04:17:21;;;;;;;8.43;7.40;;;;;;;;;;10279505;28;20084;-62
2021/06/11 04:22:23;;;;;;;9.68;7.13;;;;;;;;;;10279302;28;20159;-61
2021/06/11 04:27:22;;;;;;;11.98;7.80;;;;;;;;;;10279454;28;20085;-62
2021/06/11 04:32:20;;;;;;;9.05;7.88;;;;;;;;;;10279248;28;20040;-62
2021/06/11 04:37:20;;;;;;;10.52;7.35;;;;;;;;;;10277917;28;20100;-62
2021/06/11 04:42:17;;;;;;;12.95;7.80;;;;;;;;;;10278372;28;20472;-61
2021/06/11 04:47:17;;;;;;;10.68;8.10;;;;;;;;;;10278387;28;20509;-61
2021/06/11 04:52:15;;;;;;;9.27;7.43;;;;;;;;;;10277322;28;20089;-62
2021/06/11 04:57:13;;;;;;;10.60;8.43;;;;;;;;;;10276118;28;20088;-61
2021/06/11 05:02:11;;;;;;;11.68;9.68;;;;;;;;;;10276005;28;20072;-61
2021/06/11 05:07:10;;;;;;;16.02;12.88;;;;;;;;;;10276162;28;20072;-61
2021/06/11 05:12:08;;;;;;;13.48;10.77;;;;;;;;;;10277048;28;20045;-61
2021/06/11 05:17:06;;;;;;;12.18;9.77;;;;;;;;;;10277658;28;20544;-62
2021/06/11 05:22:05;;;;;;;18.63;10.38;;;;;;;;;;10277624;28;20088;-62
2021/06/11 05:27:05;;;;;;;16.52;13.13;;;;;;;;;;10276992;28;20049;-61
2021/06/11 05:32:03;;;;;;;22.85;14.80;;;;;;;;;;10276538;28;20077;-61
2021/06/11 05:37:01;;;;;;;18.75;12.68;;;;;;;;;;10276226;28;20081;-61
2021/06/11 05:41:59;;;;;;;22.40;15.55;;;;;;;;;;10276627;28;20079;-61
2021/06/11 05:46:58;;;;;;;24.70;14.57;;;;;;;;;;10276198;28;20041;-61
2021/06/11 05:51:56;;;;;;;26.50;13.50;;;;;;;;;;10276229;28;20095;-62
2021/06/11 05:56:56;;;;;;;16.40;13.00;;;;;;;;;;10276370;28;20076;-62
2021/06/11 06:01:54;;;;;;;14.57;11.07;;;;;;;;;;10276020;28;20036;-62
2021/06/11 06:06:53;;;;;;;29.17;8.27;;;;;;;;;;10275303;28;20076;-62
2021/06/11 06:11:51;;;;;;;16.83;8.00;;;;;;;;;;10275313;28;20524;-62
2021/06/11 06:16:49;;;;;;;16.95;7.68;;;;;;;;;;10273979;28;20089;-62
2021/06/11 06:21:47;;;;;;;11.73;7.40;;;;;;;;;;10275331;28;20469;-62
2021/06/11 06:26:46;;;;;;;14.48;7.30;;;;;;;;;;10273460;28;20056;-62
2021/06/11 06:31:44;;;;;;;10.02;6.53;;;;;;;;;;10274183;28;20657;-62
2021/06/11 06:36:42;;;;;;;15.73;6.85;;;;;;;;;;10274378;28;20080;-62
2021/06/11 06:41:39;;;;;;;8.82;6.75;;;;;;;;;;10274782;28;20064;-62
2021/06/11 06:46:39;;;;;;;10.68;7.13;;;;;;;;;;10274422;28;20421;-62
2021/06/11 06:51:37;;;;;;;13.05;6.78;;;;;;;;;;10273784;28;20085;-62
2021/06/11 06:56:35;;;;;;;9.07;6.20;;;;;;;;;;10273634;28;20083;-62
2021/06/11 07:01:33;;;;;;;8.30;6.05;;;;;;;;;;10273502;28;20037;-62
2021/06/11 07:06:32;;;;;;;11.73;5.63;;;;;;;;;;10273314;28;20072;-62
2021/06/11 07:11:30;;;;;;;12.23;6.13;;;;;;;;;;10273575;28;20048;-62
2021/06/11 07:16:28;;;;;;;8.18;5.07;;;;;;;;;;10272939;28;20509;-62
2021/06/11 07:21:26;;;;;;;8.82;4.43;;;;;;;;;;10273809;28;20073;-62
2021/06/11 07:26:25;;;;;;;8.32;4.65;;;;;;;;;;10272820;28;20517;-62
2021/06/11 07:31:25;;;;;;;5.55;4.65;;;;;;;;;;10272496;28;20110;-62
2021/06/11 07:36:23;;;;;;;9.75;4.70;;;;;;;;;;10277614;28;20087;-61
2021/06/11 07:41:21;;;;;;;19.13;4.80;;;;;;;;;;10280890;28;20088;-62
2021/06/11 07:46:20;;;;;;;4.05;3.72;;;;;;;;;;10280503;28;20060;-60
2021/06/11 07:51:19;;;;;;;5.53;3.80;;;;;;;;;;10280654;28;20079;-62
2021/06/11 07:56:16;;;;;;;5.13;4.68;;;;;;;;;;10280240;28;20088;-62
2021/06/11 08:01:14;;;;;;;9.10;4.45;;;;;;;;;;10278531;28;20076;-61
2021/06/11 08:06:13;;;;;;;4.75;3.88;;;;;;;;;;10279541;28;20056;-61
2021/06/11 08:11:16;;;;;;;5.43;4.20;;;;;;;;;;10279972;28;20485;-62
2021/06/11 08:16:13;;;;;;;9.45;5.70;;;;;;;;;;10279128;28;20076;-61
2021/06/11 08:21:11;;;;;;;3.38;2.83;;;;;;;;;;10278820;28;20462;-61
2021/06/11 08:26:11;;;;;;;9.10;4.05;;;;;;;;;;10279324;28;20052;-60
2021/06/11 08:31:09;;;;;;;9.85;7.82;;;;;;;;;;10279023;28;20048;-60
2021/06/11 08:36:07;;;;;;;19.50;15.50;;;;;;;;;;10279321;28;20110;-55
2021/06/11 08:41:07;;;;;;;11.32;10.13;;;;;;;;;;10279180;28;20049;-55
2021/06/11 08:46:07;;;;;;;4.10;3.70;;;;;;;;;;10277519;28;20049;-53
2021/06/11 08:51:08;;;;;;;11.90;9.20;;;;;;;;;;10278358;28;20478;-53
2021/06/11 08:56:06;;;;;;;14.00;5.97;;;;;;;;;;10278065;28;20068;-53
2021/06/11 09:01:04;;;;;;;8.50;5.78;;;;;;;;;;10277840;28;20072;-52
2021/06/11 09:06:09;;;;;;;12.25;5.97;;;;;;;;;;10277742;28;20045;-55
2021/06/11 09:11:12;;;;;;;7.30;4.70;;;;;;;;;;10278717;28;20076;-54
2021/06/11 09:16:11;;;;;;;9.15;4.97;;;;;;;;;;10277245;28;20100;-54
2021/06/11 09:21:24;;;;;;;12.15;4.45;;;;;;;;;;10277335;28;20077;-54
2021/06/11 09:26:24;;;;;;;7.50;4.53;;;;;;;;;;10277037;28;20065;-57
2021/06/11 09:31:24;;;;;;;8.25;5.25;;;;;;;;;;10276783;28;20186;-53
2021/06/11 09:36:22;;;;;;;5.47;4.43;;;;;;;;;;10276444;28;20084;-53
2021/06/11 09:41:20;;;;;;;8.98;4.32;;;;;;;;;;10276158;28;20045;-55
2021/06/11 09:46:19;;;;;;;6.82;4.63;;;;;;;;;;10274968;28;20053;-53
2021/06/11 09:51:18;;;;;;;6.70;4.05;;;;;;;;;;10275977;28;20076;-55
2021/06/11 09:56:19;;;;;;;6.90;4.68;;;;;;;;;;10275869;28;20287;-55
2021/06/11 10:01:17;;;;;;;14.60;5.15;;;;;;;;;;10275022;28;20093;-55
2021/06/11 10:06:17;;;;;;;10.25;4.28;;;;;;;;;;10275643;28;20466;-55
2021/06/11 10:11:16;;;;;;;5.10;3.78;;;;;;;;;;10275333;28;20073;-55
2021/06/11 10:16:15;;;;;;;5.35;4.25;;;;;;;;;;10274742;28;20084;-54
2021/06/11 10:21:13;;;;;;;4.95;4.28;;;;;;;;;;10274898;28;20080;-54
2021/06/11 10:26:13;;;;;;;7.85;4.50;;;;;;;;;;10275299;28;20053;-54
2021/06/11 10:31:11;;;;;;;5.38;4.85;;;;;;;;;;10272921;28;20053;-55
2021/06/11 10:36:29;;;;;;;8.93;4.45;;;;;;;;;;10274868;28;20126;-51
2021/06/11 10:41:29;;;;;;;5.05;4.07;;;;;;;;;;10274795;28;20037;-52
2021/06/11 10:46:29;;;;;;;5.05;4.50;;;;;;;;;;10274539;28;20068;-48
2021/06/11 10:51:38;;;;;;;7.15;4.47;;;;;;;;;;10274685;28;20177;-56
2021/06/11 10:56:37;;;;;;;6.55;4.15;;;;;;;;;;10274183;28;20081;-50
2021/06/11 11:01:35;;;;;;;7.07;4.78;;;;;;;;;;10273984;28;20045;-54
2021/06/11 11:06:34;;;;;;;6.60;4.93;;;;;;;;;;10273760;28;20084;-55
2021/06/11 11:11:40;;;;;;;4.53;4.13;;;;;;;;;;10278614;28;20064;-54
2021/06/11 11:16:38;;;;;;;5.65;5.15;;;;;;;;;;10282273;28;20115;-56
2021/06/11 11:21:38;;;;;;;7.78;5.43;;;;;;;;;;10281917;28;20076;-57
2021/06/11 11:26:45;;;;;;;5.72;5.15;;;;;;;;;;10281176;28;20072;-56
2021/06/11 11:31:47;;;;;;;5.63;3.97;;;;;;;;;;10281519;28;20080;-54
2021/06/11 11:36:46;;;;;;;13.10;4.82;;;;;;;;;;10281651;28;20088;-53
2021/06/11 11:41:48;;;;;;;6.93;4.00;;;;;;;;;;10281671;28;20045;-54
2021/06/11 11:46:45;;;;;;;5.35;3.67;;;;;;;;;;10280308;28;20057;-53
2021/06/11 11:51:44;;;;;;;5.00;4.40;;;;;;;;;;10280938;28;20069;-54
2021/06/11 11:56:41;;;;;;;5.57;4.07;;;;;;;;;;10280952;28;20087;-52
2021/06/11 12:01:41;;;;;;;8.48;5.50;;;;;;;;;;10278755;28;20059;-49
2021/06/11 12:06:40;;;;;;;8.40;7.45;;;;;;;;;;10280223;28;20052;-51
2021/06/11 12:11:38;;;;;;;6.38;5.22;;;;;;;;;;10280077;28;20060;-49
2021/06/11 12:16:36;;;;;;;8.23;4.47;;;;;;;;;;10279877;28;20107;-53
2021/06/11 12:21:36;;;;;;;5.35;3.75;;;;;;;;;;10279908;28;20048;-50
2021/06/11 12:26:34;;;;;;;4.70;4.30;;;;;;;;;;10279491;28;20049;-53
2021/06/11 12:31:33;;;;;;;6.05;4.13;;;;;;;;;;10279397;28;20073;-55
2021/06/11 12:36:31;;;;;;;20.08;17.98;;;;;;;;;;10278765;28;20076;-55
2021/06/11 12:41:34;;;;;;;9.07;8.10;;;;;;;;;;10278761;28;20045;-54
2021/06/11 12:46:32;;;;;;;5.78;3.70;;;;;;;;;;10278861;28;20052;-53
2021/06/11 12:51:31;;;;;;;7.30;4.35;;;;;;;;;;10278476;28;20501;-52
2021/06/11 12:56:30;;;;;;;4.60;4.20;;;;;;;;;;10278128;28;20099;-49
2021/06/11 13:01:30;;;;;;;8.77;4.50;;;;;;;;;;10278037;28;20076;-52
2021/06/11 13:06:28;;;;;;;7.80;4.60;;;;;;;;;;10278150;28;20049;-48
2021/06/11 13:11:26;;;;;;;5.80;4.47;;;;;;;;;;10277462;28;20072;-53
2021/06/11 13:16:24;;;;;;;8.75;4.45;;;;;;;;;;10277377;28;20612;-53
2021/06/11 13:21:23;;;;;;;14.63;4.88;;;;;;;;;;10277840;28;20049;-50
2021/06/11 13:26:21;;;;;;;4.28;3.63;;;;;;;;;;10276574;28;20083;-56
2021/06/11 13:31:20;;;;;;;4.05;3.38;;;;;;;;;;10276622;28;20048;-56
2021/06/11 13:36:18;;;;;;;5.28;3.63;;;;;;;;;;10276066;28;20470;-52
2021/06/11 13:41:20;;;;;;;7.85;3.17;;;;;;;;;;10274680;28;20476;-52
2021/06/11 13:46:18;;;;;;;3.58;3.28;;;;;;;;;;10276010;28;20045;-53
2021/06/11 13:51:16;;;;;;;4.03;2.83;;;;;;;;;;10276041;28;20044;-50
2021/06/11 13:56:16;;;;;;;6.85;3.80;;;;;;;;;;10275485;28;20049;-51
2021/06/11 14:01:15;;;;;;;6.43;3.78;;;;;;;;;;10275516;28;20053;-57
2021/06/11 14:06:13;;;;;;;5.35;3.10;;;;;;;;;;10275455;28;20076;-58
2021/06/11 14:11:11;;;;;;;7.03;4.35;;;;;;;;;;10275195;28;20073;-58
2021/06/11 14:16:09;;;;;;;5.25;2.90;;;;;;;;;;10274658;28;20045;-57
2021/06/11 14:21:08;;;;;;;3.80;3.50;;;;;;;;;;10275019;28;20072;-57
2021/06/11 14:26:06;;;;;;;7.38;5.95;;;;;;;;;;10274869;28;20052;-58
2021/06/11 14:31:04;;;;;;;17.73;11.38;;;;;;;;;;10275057;28;20325;-58
2021/06/11 14:36:02;;;;;;;12.93;8.30;;;;;;;;;;10273422;28;20080;-55
2021/06/11 14:41:01;;;;;;;12.80;4.78;;;;;;;;;;10274778;28;20072;-56
2021/06/11 14:45:59;;;;;;;12.43;5.70;;;;;;;;;;10290164;28;20072;-55
2021/06/11 14:50:57;;;;;;;7.57;5.50;;;;;;;;;;10286641;28;20098;-56
2021/06/11 14:56:01;;;;;;;8.95;4.50;;;;;;;;;;10277176;28;20053;-57
2021/06/11 15:01:01;;;;;;;4.88;3.92;;;;;;;;;;10296118;28;20083;-57
2021/06/11 15:06:03;;;;;;;7.85;3.53;;;;;;;;;;10289066;28;20064;-57
2021/06/11 15:11:00;;;;;;;8.52;5.30;;;;;;;;;;10298668;28;20456;-57
2021/06/11 15:15:59;;;;;;;5.55;4.38;;;;;;;;;;10288833;28;20107;-57
2021/06/11 15:20:58;;;;;;;5.32;4.15;;;;;;;;;;10297566;28;20512;-57
2021/06/11 15:25:56;;;;;;;5.55;3.70;;;;;;;;;;10294190;28;20060;-56
2021/06/11 15:30:54;;;;;;;5.75;4.22;;;;;;;;;;10293458;28;20072;-55
2021/06/11 15:35:52;;;;;;;5.20;4.15;;;;;;;;;;10291131;28;20071;-54
2021/06/11 15:40:52;;;;;;;7.80;4.57;;;;;;;;;;10292809;28;20073;-55
2021/06/11 15:45:50;;;;;;;5.45;4.10;;;;;;;;;;10293283;28;20556;-57
2021/06/11 15:50:48;;;;;;;8.63;4.13;;;;;;;;;;10294021;28;20064;-56
2021/06/11 15:55:46;;;;;;;7.57;4.30;;;;;;;;;;10293954;28;20068;-58
2021/06/11 16:00:46;;;;;;;3.50;3.20;;;;;;;;;;10299960;28;20071;-57
2021/06/11 16:05:44;;;;;;;5.18;3.67;;;;;;;;;;10300316;28;20523;-50
2021/06/11 16:10:42;;;;;;;7.43;3.60;;;;;;;;;;10296891;28;20105;-57
2021/06/11 16:15:40;;;;;;;4.28;3.50;;;;;;;;;;10299268;28;20064;-53
2021/06/11 16:20:40;;;;;;;9.18;4.15;;;;;;;;;;10298894;28;20091;-55
2021/06/11 16:25:38;;;;;;;7.45;4.53;;;;;;;;;;10293974;28;20073;-57
2021/06/11 16:30:36;;;;;;;14.45;6.07;;;;;;;;;;10276192;28;20454;-58
2021/06/11 16:35:46;;;;;;;15.82;12.18;;;;;;;;;;10278348;28;20073;-56
2021/06/11 16:40:44;;;;;;;6.07;4.70;;;;;;;;;;10278526;28;20072;-57
2021/06/11 16:45:43;;;;;;;9.57;5.32;;;;;;;;;;10278535;28;20075;-58
2021/06/11 16:50:41;;;;;;;4.82;4.07;;;;;;;;;;10278788;28;20076;-58
2021/06/11 16:55:40;;;;;;;7.07;5.32;;;;;;;;;;10278280;28;20045;-58
2021/06/11 17:00:39;;;;;;;47.78;36.58;;;;;;;;;;10277436;28;20084;-57
2021/06/11 17:05:37;;;;;;;14.77;13.05;;;;;;;;;;10278534;28;20057;-57
2021/06/11 17:10:35;;;;;;;6.22;4.20;;;;;;;;;;10277086;28;20053;-57
2021/06/11 17:15:34;;;;;;;6.55;4.35;;;;;;;;;;10277658;28;20064;-53
2021/06/11 17:20:32;;;;;;;7.03;4.65;;;;;;;;;;10276824;28;20061;-52
2021/06/11 17:25:31;;;;;;;6.55;4.40;;;;;;;;;;10290567;28;20080;-53
2021/06/11 17:30:30;;;;;;;5.07;3.67;;;;;;;;;;10293541;28;20449;-59
2021/06/11 17:35:29;;;;;;;9.60;4.00;;;;;;;;;;10288901;28;20075;-58
2021/06/11 17:40:28;;;;;;;6.20;4.38;;;;;;;;;;10278422;28;20076;-57
2021/06/11 17:45:26;;;;;;;5.40;4.68;;;;;;;;;;10270711;28;20065;-57
2021/06/11 17:50:24;;;;;;;12.02;4.88;;;;;;;;;;10272440;28;20076;-54
2021/06/11 17:55:33;;;;;;;7.15;4.63;;;;;;;;;;10271956;28;20072;-57
2021/06/11 18:00:31;;;;;;;5.35;3.67;;;;;;;;;;10275973;28;20501;-59
2021/06/11 18:05:29;;;;;;;10.32;6.13;;;;;;;;;;10276306;28;20075;-58
2021/06/11 18:10:36;;;;;;;5.05;4.28;;;;;;;;;;10274921;28;20053;-57
2021/06/11 18:15:34;;;;;;;7.57;4.35;;;;;;;;;;10275154;28;20076;-57
2021/06/11 18:20:32;;;;;;;9.32;5.30;;;;;;;;;;10274766;28;20088;-57
2021/06/11 18:25:30;;;;;;;7.05;5.10;;;;;;;;;;10274472;28;20069;-58
2021/06/11 18:30:30;;;;;;;5.35;4.47;;;;;;;;;;10275791;28;20076;-64
2021/06/11 18:35:28;;;;;;;4.20;3.80;;;;;;;;;;10274906;28;20835;-63
2021/06/11 18:40:27;;;;;;;8.90;4.35;;;;;;;;;;10274661;28;20081;-64
2021/06/11 18:45:25;;;;;;;6.75;4.70;;;;;;;;;;10274262;28;20048;-64
2021/06/11 18:50:24;;;;;;;6.22;4.25;;;;;;;;;;10273666;28;20052;-63
2021/06/11 18:55:23;;;;;;;7.47;4.50;;;;;;;;;;10274379;28;20048;-63
2021/06/11 19:00:23;;;;;;;6.65;5.32;;;;;;;;;;10273951;28;20088;-63
2021/06/11 19:05:28;;;;;;;8.98;6.80;;;;;;;;;;10273490;28;20140;-63
2021/06/11 19:10:26;;;;;;;6.13;5.53;;;;;;;;;;10274192;28;20045;-63
2021/06/11 19:15:26;;;;;;;6.65;6.00;;;;;;;;;;10273950;28;20065;-62
2021/06/11 19:20:29;;;;;;;6.15;5.55;;;;;;;;;;10274090;28;20099;-62
2021/06/11 19:25:27;;;;;;;8.32;5.45;;;;;;;;;;10273851;28;20493;-57
2021/06/11 19:30:26;;;;;;;7.10;5.00;;;;;;;;;;10274142;28;20087;-57
2021/06/11 19:35:42;;;;;;;6.20;4.45;;;;;;;;;;10281155;28;20069;-57
2021/06/11 19:40:57;;;;;;;8.23;5.63;;;;;;;;;;10280575;28;20103;-58
2021/06/11 19:45:59;;;;;;;7.68;6.50;;;;;;;;;;10281131;28;20060;-58
2021/06/11 19:50:56;;;;;;;7.13;5.47;;;;;;;;;;10281075;28;20060;-55
2021/06/11 19:56:08;;;;;;;6.72;6.00;;;;;;;;;;10280458;28;20045;-58
2021/06/11 20:01:09;;;;;;;5.88;5.22;;;;;;;;;;10280511;28;20088;-57
2021/06/11 20:06:07;;;;;;;5.82;4.93;;;;;;;;;;10279928;28;20056;-57
2021/06/11 20:11:05;;;;;;;6.43;5.80;;;;;;;;;;10280376;28;20045;-58
2021/06/11 20:16:04;;;;;;;9.77;6.55;;;;;;;;;;10279708;28;20056;-57
2021/06/11 20:21:05;;;;;;;6.60;5.63;;;;;;;;;;10278922;28;20091;-58
2021/06/11 20:26:03;;;;;;;11.48;5.63;;;;;;;;;;10279980;28;20053;-58
2021/06/11 20:31:01;;;;;;;10.07;4.70;;;;;;;;;;10279329;28;20081;-58
2021/06/11 20:35:58;;;;;;;8.25;5.25;;;;;;;;;;10278195;28;20088;-58
2021/06/11 20:40:58;;;;;;;5.85;5.25;;;;;;;;;;10277094;28;20084;-58
2021/06/11 20:45:56;;;;;;;7.40;5.80;;;;;;;;;;10278226;28;20088;-58
2021/06/11 20:50:54;;;;;;;5.25;4.80;;;;;;;;;;10278864;28;20075;-58
2021/06/11 20:56:06;;;;;;;5.75;5.20;;;;;;;;;;10278912;28;20045;-58
2021/06/11 21:01:04;;;;;;;4.82;4.43;;;;;;;;;;10278000;28;20076;-58
2021/06/11 21:06:02;;;;;;;5.55;4.55;;;;;;;;;;10278839;28;20045;-58
2021/06/11 21:11:00;;;;;;;5.47;4.97;;;;;;;;;;10278080;28;20083;-57
2021/06/11 21:15:59;;;;;;;5.03;4.50;;;;;;;;;;10277359;28;20096;-58
2021/06/11 21:21:01;;;;;;;7.05;4.45;;;;;;;;;;10278690;28;20071;-55
2021/06/11 21:25:59;;;;;;;7.55;5.95;;;;;;;;;;10304878;28;20049;-58
2021/06/11 21:30:57;;;;;;;5.78;5.10;;;;;;;;;;10282272;28;20086;-56
2021/06/11 21:35:57;;;;;;;6.43;5.05;;;;;;;;;;10289975;28;20068;-58
2021/06/11 21:40:55;;;;;;;7.88;4.32;;;;;;;;;;10283007;28;20511;-58
2021/06/11 21:45:53;;;;;;;8.32;5.20;;;;;;;;;;10314645;28;20048;-58
2021/06/11 21:50:51;;;;;;;8.77;4.43;;;;;;;;;;10318230;28;20512;-57
2021/06/11 21:55:50;;;;;;;7.10;4.88;;;;;;;;;;10318083;28;20052;-57
2021/06/11 22:00:48;;;;;;;4.75;4.20;;;;;;;;;;10318267;28;20088;-57
2021/06/11 22:05:45;;;;;;;8.35;5.25;;;;;;;;;;10317534;28;20051;-56
2021/06/11 22:10:43;;;;;;;5.65;4.60;;;;;;;;;;10317385;28;20048;-57
2021/06/11 22:15:42;;;;;;;4.53;4.18;;;;;;;;;;10317559;28;20087;-58
2021/06/11 22:20:40;;;;;;;4.63;3.90;;;;;;;;;;10317402;28;20080;-58
2021/06/11 22:25:38;;;;;;;4.70;4.25;;;;;;;;;;10317398;28;20040;-57
2021/06/11 22:30:38;;;;;;;4.40;4.00;;;;;;;;;;10316871;28;20048;-58
2021/06/11 22:35:37;;;;;;;5.15;4.65;;;;;;;;;;10315910;28;20040;-58
2021/06/11 22:40:36;;;;;;;3.65;3.30;;;;;;;;;;10316408;28;20076;-56
2021/06/11 22:45:33;;;;;;;4.85;4.28;;;;;;;;;;10316163;28;20051;-58
2021/06/11 22:50:32;;;;;;;9.15;4.75;;;;;;;;;;10314750;28;20091;-58
2021/06/11 22:55:31;;;;;;;6.50;4.53;;;;;;;;;;10316102;28;20036;-58
2021/06/11 23:00:30;;;;;;;9.25;6.22;;;;;;;;;;10315922;28;20072;-57
2021/06/11 23:05:28;;;;;;;9.27;6.85;;;;;;;;;;10317076;28;20045;-57
2021/06/11 23:10:27;;;;;;;9.07;6.70;;;;;;;;;;10324423;28;20052;-58
2021/06/11 23:15:26;;;;;;;9.73;6.50;;;;;;;;;;10324093;28;20095;-58
2021/06/11 23:20:24;;;;;;;9.18;7.00;;;;;;;;;;10324019;28;20072;-58
2021/06/11 23:25:22;;;;;;;6.70;6.05;;;;;;;;;;10324292;28;20056;-57
2021/06/11 23:30:22;;;;;;;6.95;6.07;;;;;;;;;;10324230;28;20099;-58
2021/06/11 23:35:21;;;;;;;10.73;6.20;;;;;;;;;;10323403;28;20520;-58
2021/06/11 23:40:20;;;;;;;7.90;6.97;;;;;;;;;;10322988;28;20481;-56
2021/06/11 23:45:19;;;;;;;8.57;6.75;;;;;;;;;;10323021;28;20052;-57
2021/06/11 23:50:17;;;;;;;13.32;6.72;;;;;;;;;;10322830;28;20073;-58
2021/06/11 23:55:17;;;;;;;11.88;6.47;;;;;;;;;;10321842;28;20518;-57
